createdAt,value
2023-01-17T05:14:51.566Z,30.77
2023-01-17T05:17:55.372Z,28.35
2023-01-17T05:21:04.967Z,29.75
2023-01-17T05:24:07.841Z,20.75
2023-01-17T05:27:11.618Z,18.52
2023-01-17T05:30:14.728Z,17.70
2023-01-17T05:33:17.232Z,14.52
2023-01-17T05:36:21.225Z,17.98
2023-01-17T05:39:24.195Z,16.00
2023-01-17T05:42:27.139Z,13.68
2023-01-17T05:45:31.327Z,13.93
2023-01-17T05:48:34.263Z,14.38
2023-01-17T05:51:37.999Z,15.55
2023-01-17T05:54:40.873Z,12.82
2023-01-17T05:57:43.435Z,15.27
2023-01-17T06:00:46.762Z,12.77
2023-01-17T06:03:49.775Z,13.32
2023-01-17T06:06:52.349Z,13.23
2023-01-17T06:09:55.300Z,13.43
2023-01-17T06:13:12.690Z,10.95
2023-01-17T06:16:15.571Z,13.07
2023-01-17T06:19:18.371Z,8.80
2023-01-17T06:22:21.169Z,7.32
2023-01-17T06:25:23.937Z,8.10
2023-01-17T06:28:26.817Z,8.70
2023-01-17T06:31:29.529Z,7.82
2023-01-17T06:34:32.369Z,7.80
2023-01-17T06:37:34.965Z,7.82
2023-01-17T06:40:37.774Z,6.65
2023-01-17T06:43:40.254Z,6.90
2023-01-17T06:46:43.484Z,7.43
2023-01-17T06:49:46.466Z,5.90
2023-01-17T06:53:03.221Z,6.20
2023-01-17T06:56:06.543Z,7.53
2023-01-17T06:59:09.383Z,5.05
2023-01-17T07:02:11.917Z,3.72
2023-01-17T07:05:16.371Z,5.18
2023-01-17T07:08:20.005Z,5.05
2023-01-17T07:11:23.394Z,5.43
2023-01-17T07:14:26.011Z,4.50
2023-01-17T07:17:28.832Z,8.70
2023-01-17T07:20:32.242Z,5.18
2023-01-17T07:23:35.184Z,5.37
2023-01-17T07:26:40.190Z,5.93
2023-01-17T07:29:43.051Z,5.75
2023-01-17T07:32:52.315Z,6.57
2023-01-17T07:35:55.184Z,4.50
2023-01-17T07:38:57.695Z,4.40
2023-01-17T07:42:00.856Z,6.40
2023-01-17T07:45:04.124Z,3.72
2023-01-17T07:48:07.019Z,3.55
2023-01-17T07:51:09.856Z,4.43
2023-01-17T07:54:12.872Z,2.53
2023-01-17T07:57:15.437Z,2.90
2023-01-17T08:00:18.832Z,3.67
2023-01-17T08:03:21.757Z,3.78
2023-01-17T08:06:25.964Z,2.97
2023-01-17T08:09:28.930Z,3.47
2023-01-17T08:12:31.587Z,1.70
2023-01-17T08:15:34.608Z,1.73
2023-01-17T08:18:37.539Z,1.10
2023-01-17T08:21:41.660Z,2.22
2023-01-17T08:24:44.714Z,0.93
2023-01-17T08:27:47.559Z,1.00
2023-01-17T08:30:50.056Z,0.95
2023-01-17T08:37:30.973Z,2.17
2023-01-17T08:40:33.877Z,1.30
2023-01-17T08:43:36.351Z,1.60
2023-01-17T08:46:40.065Z,0.75
2023-01-17T08:50:03.078Z,0.95
2023-01-17T08:56:53.061Z,2.08
2023-01-17T09:11:10.851Z,1.25
2023-01-17T09:14:14.303Z,1.52
2023-01-17T09:17:17.186Z,1.67
2023-01-17T09:20:20.033Z,1.30
2023-01-17T09:23:23.265Z,1.00
2023-01-17T09:26:29.149Z,2.85
2023-01-17T09:29:32.020Z,2.08
2023-01-17T09:32:34.915Z,2.47
2023-01-17T09:35:37.937Z,1.33
2023-01-17T09:38:41.002Z,1.23
2023-01-17T09:42:07.571Z,0.88
2023-01-17T09:45:18.254Z,1.20
2023-01-17T09:48:31.756Z,1.12
2023-01-17T09:51:36.615Z,1.05
2023-01-17T09:54:42.068Z,2.17
2023-01-17T09:58:03.190Z,1.75
2023-01-17T10:01:18.112Z,0.90
2023-01-17T10:04:55.701Z,0.90
2023-01-17T10:08:16.390Z,1.58
2023-01-17T10:11:34.813Z,1.15
2023-01-17T10:15:03.168Z,1.60
2023-01-17T10:18:30.518Z,1.02
2023-01-17T10:22:37.556Z,1.60
2023-01-17T10:25:48.069Z,1.00
2023-01-17T10:28:53.032Z,1.63
2023-01-17T10:32:01.097Z,1.73
2023-01-17T10:35:16.223Z,1.50
2023-01-17T10:38:22.077Z,2.58
2023-01-17T10:41:39.767Z,2.37
2023-01-17T10:45:04.141Z,2.03
2023-01-17T10:48:28.596Z,2.58
2023-01-17T10:51:49.935Z,2.08
2023-01-17T10:55:39.989Z,2.22
2023-01-17T10:58:42.975Z,2.20
2023-01-17T11:01:45.869Z,3.90
2023-01-17T11:04:54.373Z,3.28
2023-01-17T11:08:26.205Z,1.60
2023-01-17T11:11:32.925Z,1.67
2023-01-17T11:14:36.110Z,1.70
2023-01-17T11:17:53.192Z,1.45
2023-01-17T11:21:20.866Z,4.37
2023-01-17T11:24:37.277Z,1.75
2023-01-17T11:27:41.002Z,1.52
2023-01-17T11:30:52.771Z,2.80
2023-01-17T11:34:32.084Z,1.50
2023-01-17T11:37:35.774Z,1.10
2023-01-17T11:40:42.411Z,1.48
2023-01-17T11:43:57.328Z,1.48
2023-01-17T11:47:12.160Z,2.40
2023-01-17T11:50:24.914Z,2.17
2023-01-17T11:53:34.623Z,2.20
2023-01-17T11:56:37.911Z,5.37
2023-01-17T11:59:44.500Z,1.80
2023-01-17T12:03:39.524Z,1.37
2023-01-17T12:06:57.611Z,1.37
2023-01-17T12:10:13.127Z,2.50
2023-01-17T12:14:00.664Z,1.40
2023-01-17T12:17:45.578Z,1.10
2023-01-17T12:21:10.063Z,1.77
2023-01-17T12:24:21.776Z,2.15
2023-01-17T12:27:34.760Z,2.95
2023-01-17T12:30:40.303Z,3.75
2023-01-17T12:34:11.515Z,3.12
2023-01-17T12:37:37.132Z,2.90
2023-01-17T12:41:09.030Z,2.62
2023-01-17T12:44:16.120Z,2.75
2023-01-17T12:47:20.965Z,2.00
2023-01-17T12:50:32.519Z,2.75
2023-01-17T12:53:47.773Z,3.25
2023-01-17T12:57:04.903Z,2.95
2023-01-17T13:00:10.733Z,2.10
2023-01-17T13:03:42.572Z,2.35
2023-01-17T13:07:00.813Z,2.12
2023-01-17T13:10:31.815Z,1.62
2023-01-17T13:13:36.113Z,1.87
2023-01-17T13:16:57.982Z,2.17
2023-01-17T13:20:14.254Z,2.33
2023-01-17T13:23:29.276Z,4.50
2023-01-17T13:26:40.293Z,3.00
2023-01-17T13:29:57.974Z,2.97
2023-01-17T13:33:18.541Z,3.25
2023-01-17T13:36:59.810Z,2.67
2023-01-17T13:40:18.180Z,3.37
2023-01-17T13:43:34.458Z,2.83
2023-01-17T13:47:04.281Z,4.43
2023-01-17T13:57:30.431Z,2.80
2023-01-17T14:00:36.051Z,3.60
2023-01-17T14:03:51.138Z,4.72
2023-01-17T14:06:56.671Z,3.97
2023-01-17T14:09:59.520Z,4.37
2023-01-17T14:13:04.171Z,4.60
2023-01-17T14:16:22.407Z,6.57
2023-01-17T14:19:27.189Z,5.12
2023-01-17T14:22:35.263Z,5.82
2023-01-17T14:25:41.468Z,5.25
2023-01-17T14:28:44.404Z,3.92
2023-01-17T14:31:49.234Z,6.53
2023-01-17T14:34:57.218Z,7.70
2023-01-17T14:38:03.029Z,6.45
2023-01-17T14:41:13.933Z,5.97
2023-01-17T14:44:17.272Z,6.05
2023-01-17T14:47:20.307Z,5.78
2023-01-17T14:50:30.381Z,7.80
2023-01-17T14:53:33.956Z,7.62
2023-01-17T14:56:36.603Z,5.53
2023-01-17T14:59:39.542Z,8.10
2023-01-17T15:02:44.135Z,5.35
2023-01-17T15:05:50.330Z,6.95
2023-01-17T15:08:56.084Z,6.25
2023-01-17T15:11:59.551Z,7.28
2023-01-17T15:15:02.178Z,6.12
2023-01-17T15:18:15.106Z,9.27
2023-01-17T15:21:21.160Z,7.57
2023-01-17T15:24:29.508Z,6.87
2023-01-17T15:27:32.511Z,7.45
2023-01-17T15:30:35.506Z,7.25
2023-01-17T15:33:41.447Z,8.63
2023-01-17T15:36:48.892Z,8.48
2023-01-17T15:39:51.790Z,7.65
2023-01-17T15:42:58.671Z,7.18
2023-01-17T15:46:04.994Z,8.73
2023-01-17T15:49:16.631Z,7.43
2023-01-17T15:52:21.522Z,8.73
2023-01-17T15:55:36.044Z,7.18
2023-01-17T15:58:38.535Z,9.23
2023-01-17T16:01:44.339Z,6.62
2023-01-17T16:04:47.186Z,6.03
2023-01-17T16:07:52.871Z,6.45
2023-01-17T16:11:02.032Z,6.25
2023-01-17T16:14:07.569Z,6.55
2023-01-17T16:17:17.798Z,7.72
2023-01-17T16:20:23.543Z,6.12
2023-01-17T16:23:27.120Z,6.82
2023-01-17T16:26:29.828Z,6.12
2023-01-17T16:29:32.675Z,8.57
2023-01-17T16:32:35.378Z,6.18
2023-01-17T16:35:40.040Z,7.03
2023-01-17T16:38:48.725Z,5.15
2023-01-17T16:41:51.639Z,5.75
2023-01-17T16:44:54.173Z,5.90
2023-01-17T16:47:57.039Z,4.32
2023-01-17T16:50:59.661Z,5.75
2023-01-17T16:54:02.549Z,4.65
2023-01-17T16:57:05.084Z,4.85
2023-01-17T17:00:10.929Z,6.20
